sensor_id;sensor_type;location;lat;lon;timestamp;P1;durP1;ratioP1;P2;durP2;ratioP2
68976;SDS011;56029;52.568;13.588;2022-09-27T00:01:07;5.50;;;3.42;;
68976;SDS011;56029;52.568;13.588;2022-09-27T00:03:37;5.47;;;3.10;;
68976;SDS011;56029;52.568;13.588;2022-09-27T00:06:05;5.77;;;3.07;;
68976;SDS011;56029;52.568;13.588;2022-09-27T00:08:34;5.38;;;3.20;;
68976;SDS011;56029;52.568;13.588;2022-09-27T00:11:02;5.35;;;2.90;;
68976;SDS011;56029;52.568;13.588;2022-09-27T00:13:29;4.93;;;3.33;;
68976;SDS011;56029;52.568;13.588;2022-09-27T00:15:56;5.00;;;3.10;;
68976;SDS011;56029;52.568;13.588;2022-09-27T00:18:25;5.25;;;3.60;;
68976;SDS011;56029;52.568;13.588;2022-09-27T00:20:51;6.55;;;3.22;;
68976;SDS011;56029;52.568;13.588;2022-09-27T00:23:17;5.37;;;3.40;;
68976;SDS011;56029;52.568;13.588;2022-09-27T00:25:53;5.07;;;3.35;;
68976;SDS011;56029;52.568;13.588;2022-09-27T00:28:19;6.22;;;3.63;;
68976;SDS011;56029;52.568;13.588;2022-09-27T00:30:45;5.23;;;3.20;;
68976;SDS011;56029;52.568;13.588;2022-09-27T00:33:10;6.45;;;3.50;;
68976;SDS011;56029;52.568;13.588;2022-09-27T00:35:36;6.03;;;3.30;;
68976;SDS011;56029;52.568;13.588;2022-09-27T00:38:02;5.88;;;3.28;;
68976;SDS011;56029;52.568;13.588;2022-09-27T00:40:27;5.93;;;3.43;;
68976;SDS011;56029;52.568;13.588;2022-09-27T00:42:53;5.87;;;3.40;;
68976;SDS011;56029;52.568;13.588;2022-09-27T00:45:19;6.05;;;3.50;;
68976;SDS011;56029;52.568;13.588;2022-09-27T00:47:46;5.43;;;3.40;;
68976;SDS011;56029;52.568;13.588;2022-09-27T00:50:20;5.65;;;3.42;;
68976;SDS011;56029;52.568;13.588;2022-09-27T00:55:23;6.90;;;3.47;;
68976;SDS011;56029;52.568;13.588;2022-09-27T00:57:53;6.53;;;3.40;;
68976;SDS011;56029;52.568;13.588;2022-09-27T01:00:20;7.65;;;3.30;;
68976;SDS011;56029;52.568;13.588;2022-09-27T01:02:47;5.88;;;3.38;;
68976;SDS011;56029;52.568;13.588;2022-09-27T01:05:18;6.70;;;3.40;;
68976;SDS011;56029;52.568;13.588;2022-09-27T01:07:46;6.07;;;3.30;;
68976;SDS011;56029;52.568;13.588;2022-09-27T01:10:14;5.93;;;2.87;;
68976;SDS011;56029;52.568;13.588;2022-09-27T01:18:21;6.07;;;3.10;;
68976;SDS011;56029;52.568;13.588;2022-09-27T01:21:10;6.00;;;3.00;;
68976;SDS011;56029;52.568;13.588;2022-09-27T01:24:11;6.03;;;2.87;;
68976;SDS011;56029;52.568;13.588;2022-09-27T01:32:16;5.18;;;2.70;;
68976;SDS011;56029;52.568;13.588;2022-09-27T01:34:59;5.80;;;3.13;;
68976;SDS011;56029;52.568;13.588;2022-09-27T01:37:38;5.53;;;3.07;;
68976;SDS011;56029;52.568;13.588;2022-09-27T01:40:28;5.10;;;2.80;;
68976;SDS011;56029;52.568;13.588;2022-09-27T01:42:57;3.83;;;2.80;;
68976;SDS011;56029;52.568;13.588;2022-09-27T01:45:33;4.90;;;2.85;;
68976;SDS011;56029;52.568;13.588;2022-09-27T01:48:08;5.32;;;2.67;;
68976;SDS011;56029;52.568;13.588;2022-09-27T01:50:39;5.80;;;2.97;;
68976;SDS011;56029;52.568;13.588;2022-09-27T01:53:11;5.88;;;3.00;;
68976;SDS011;56029;52.568;13.588;2022-09-27T01:55:43;4.40;;;2.72;;
68976;SDS011;56029;52.568;13.588;2022-09-27T01:58:13;6.07;;;2.90;;
68976;SDS011;56029;52.568;13.588;2022-09-27T02:00:44;5.20;;;2.60;;
68976;SDS011;56029;52.568;13.588;2022-09-27T02:03:17;5.73;;;2.70;;
68976;SDS011;56029;52.568;13.588;2022-09-27T02:05:47;4.78;;;2.40;;
68976;SDS011;56029;52.568;13.588;2022-09-27T02:08:20;4.20;;;2.55;;
68976;SDS011;56029;52.568;13.588;2022-09-27T02:10:51;4.50;;;2.60;;
68976;SDS011;56029;52.568;13.588;2022-09-27T02:13:20;6.95;;;2.70;;
68976;SDS011;56029;52.568;13.588;2022-09-27T02:15:55;6.10;;;2.40;;
68976;SDS011;56029;52.568;13.588;2022-09-27T02:18:43;4.15;;;2.17;;
68976;SDS011;56029;52.568;13.588;2022-09-27T02:21:14;5.57;;;2.47;;
68976;SDS011;56029;52.568;13.588;2022-09-27T02:23:42;5.10;;;2.53;;
68976;SDS011;56029;52.568;13.588;2022-09-27T02:26:16;3.60;;;2.40;;
68976;SDS011;56029;52.568;13.588;2022-09-27T02:28:51;4.87;;;2.20;;
68976;SDS011;56029;52.568;13.588;2022-09-27T02:31:25;3.92;;;2.20;;
68976;SDS011;56029;52.568;13.588;2022-09-27T02:33:52;4.00;;;2.35;;
68976;SDS011;56029;52.568;13.588;2022-09-27T02:36:24;3.88;;;2.20;;
68976;SDS011;56029;52.568;13.588;2022-09-27T02:38:50;5.23;;;2.30;;
68976;SDS011;56029;52.568;13.588;2022-09-27T02:41:17;4.03;;;2.30;;
68976;SDS011;56029;52.568;13.588;2022-09-27T02:43:46;3.67;;;2.17;;
68976;SDS011;56029;52.568;13.588;2022-09-27T02:49:11;5.35;;;2.00;;
68976;SDS011;56029;52.568;13.588;2022-09-27T02:51:56;4.68;;;2.17;;
68976;SDS011;56029;52.568;13.588;2022-09-27T02:54:41;4.07;;;2.10;;
68976;SDS011;56029;52.568;13.588;2022-09-27T02:57:21;4.03;;;2.20;;
68976;SDS011;56029;52.568;13.588;2022-09-27T03:02:32;4.70;;;2.40;;
68976;SDS011;56029;52.568;13.588;2022-09-27T03:05:07;3.70;;;2.28;;
68976;SDS011;56029;52.568;13.588;2022-09-27T03:07:37;4.13;;;2.40;;
68976;SDS011;56029;52.568;13.588;2022-09-27T03:10:04;3.33;;;2.30;;
68976;SDS011;56029;52.568;13.588;2022-09-27T03:12:31;3.55;;;2.20;;
68976;SDS011;56029;52.568;13.588;2022-09-27T03:14:58;4.22;;;2.38;;
68976;SDS011;56029;52.568;13.588;2022-09-27T03:17:25;3.58;;;2.20;;
68976;SDS011;56029;52.568;13.588;2022-09-27T03:19:51;4.35;;;2.40;;
68976;SDS011;56029;52.568;13.588;2022-09-27T03:22:17;4.33;;;2.30;;
68976;SDS011;56029;52.568;13.588;2022-09-27T03:24:43;5.13;;;2.50;;
68976;SDS011;56029;52.568;13.588;2022-09-27T03:27:08;4.75;;;2.60;;
68976;SDS011;56029;52.568;13.588;2022-09-27T03:29:34;5.10;;;2.63;;
68976;SDS011;56029;52.568;13.588;2022-09-27T03:32:00;5.20;;;2.58;;
68976;SDS011;56029;52.568;13.588;2022-09-27T03:34:28;4.10;;;2.50;;
68976;SDS011;56029;52.568;13.588;2022-09-27T03:36:54;5.30;;;2.53;;
68976;SDS011;56029;52.568;13.588;2022-09-27T03:39:20;5.05;;;2.65;;
68976;SDS011;56029;52.568;13.588;2022-09-27T03:41:45;5.50;;;2.67;;
68976;SDS011;56029;52.568;13.588;2022-09-27T03:44:14;4.38;;;2.60;;
68976;SDS011;56029;52.568;13.588;2022-09-27T03:46:39;4.80;;;2.93;;
68976;SDS011;56029;52.568;13.588;2022-09-27T03:49:05;5.93;;;2.70;;
68976;SDS011;56029;52.568;13.588;2022-09-27T03:51:31;4.60;;;2.70;;
68976;SDS011;56029;52.568;13.588;2022-09-27T03:53:56;6.10;;;2.90;;
68976;SDS011;56029;52.568;13.588;2022-09-27T03:56:22;5.18;;;2.90;;
68976;SDS011;56029;52.568;13.588;2022-09-27T03:58:47;6.63;;;3.20;;
68976;SDS011;56029;52.568;13.588;2022-09-27T04:01:13;4.57;;;2.90;;
68976;SDS011;56029;52.568;13.588;2022-09-27T04:03:39;5.00;;;3.20;;
68976;SDS011;56029;52.568;13.588;2022-09-27T04:06:04;6.13;;;3.10;;
68976;SDS011;56029;52.568;13.588;2022-09-27T04:08:30;4.55;;;3.00;;
68976;SDS011;56029;52.568;13.588;2022-09-27T04:10:56;6.15;;;3.08;;
68976;SDS011;56029;52.568;13.588;2022-09-27T04:13:21;4.60;;;2.90;;
68976;SDS011;56029;52.568;13.588;2022-09-27T04:15:48;4.18;;;2.80;;
68976;SDS011;56029;52.568;13.588;2022-09-27T04:18:14;7.20;;;3.50;;
68976;SDS011;56029;52.568;13.588;2022-09-27T04:20:40;6.67;;;3.47;;
68976;SDS011;56029;52.568;13.588;2022-09-27T04:23:06;5.55;;;3.40;;
68976;SDS011;56029;52.568;13.588;2022-09-27T04:25:32;5.87;;;3.10;;
68976;SDS011;56029;52.568;13.588;2022-09-27T04:27:58;4.80;;;2.97;;
68976;SDS011;56029;52.568;13.588;2022-09-27T04:30:25;5.43;;;3.08;;
68976;SDS011;56029;52.568;13.588;2022-09-27T04:32:51;5.03;;;3.10;;
68976;SDS011;56029;52.568;13.588;2022-09-27T04:35:16;5.28;;;3.28;;
68976;SDS011;56029;52.568;13.588;2022-09-27T04:38:01;5.68;;;3.47;;
68976;SDS011;56029;52.568;13.588;2022-09-27T04:40:27;5.40;;;3.23;;
68976;SDS011;56029;52.568;13.588;2022-09-27T04:42:52;6.60;;;3.40;;
68976;SDS011;56029;52.568;13.588;2022-09-27T04:45:18;7.93;;;3.70;;
68976;SDS011;56029;52.568;13.588;2022-09-27T04:47:45;5.65;;;3.38;;
68976;SDS011;56029;52.568;13.588;2022-09-27T04:50:12;6.65;;;3.50;;
68976;SDS011;56029;52.568;13.588;2022-09-27T04:52:38;6.70;;;3.60;;
68976;SDS011;56029;52.568;13.588;2022-09-27T04:55:05;6.15;;;3.63;;
68976;SDS011;56029;52.568;13.588;2022-09-27T04:57:32;6.72;;;3.60;;
68976;SDS011;56029;52.568;13.588;2022-09-27T04:59:58;5.57;;;3.40;;
68976;SDS011;56029;52.568;13.588;2022-09-27T05:02:28;6.88;;;3.90;;
68976;SDS011;56029;52.568;13.588;2022-09-27T05:04:54;6.60;;;3.47;;
68976;SDS011;56029;52.568;13.588;2022-09-27T05:07:27;8.88;;;3.90;;
68976;SDS011;56029;52.568;13.588;2022-09-27T05:09:53;6.57;;;3.60;;
68976;SDS011;56029;52.568;13.588;2022-09-27T05:12:19;6.28;;;3.40;;
68976;SDS011;56029;52.568;13.588;2022-09-27T05:14:45;6.25;;;3.80;;
68976;SDS011;56029;52.568;13.588;2022-09-27T05:17:10;5.77;;;3.50;;
68976;SDS011;56029;52.568;13.588;2022-09-27T05:19:37;5.95;;;3.90;;
68976;SDS011;56029;52.568;13.588;2022-09-27T05:22:05;6.67;;;3.90;;
68976;SDS011;56029;52.568;13.588;2022-09-27T05:24:31;8.13;;;3.90;;
68976;SDS011;56029;52.568;13.588;2022-09-27T05:27:00;6.75;;;3.60;;
68976;SDS011;56029;52.568;13.588;2022-09-27T05:29:27;6.68;;;3.80;;
68976;SDS011;56029;52.568;13.588;2022-09-27T05:31:53;6.28;;;3.40;;
68976;SDS011;56029;52.568;13.588;2022-09-27T05:34:18;6.43;;;3.70;;
68976;SDS011;56029;52.568;13.588;2022-09-27T05:36:48;6.40;;;3.70;;
68976;SDS011;56029;52.568;13.588;2022-09-27T05:39:13;6.90;;;3.83;;
68976;SDS011;56029;52.568;13.588;2022-09-27T05:41:41;6.77;;;3.60;;
68976;SDS011;56029;52.568;13.588;2022-09-27T05:44:07;6.63;;;3.78;;
68976;SDS011;56029;52.568;13.588;2022-09-27T05:46:33;6.55;;;3.60;;
68976;SDS011;56029;52.568;13.588;2022-09-27T05:48:58;6.20;;;3.60;;
68976;SDS011;56029;52.568;13.588;2022-09-27T05:51:24;5.75;;;3.60;;
68976;SDS011;56029;52.568;13.588;2022-09-27T05:53:49;7.27;;;3.83;;
68976;SDS011;56029;52.568;13.588;2022-09-27T05:56:15;5.90;;;3.53;;
68976;SDS011;56029;52.568;13.588;2022-09-27T05:58:41;6.32;;;3.47;;
68976;SDS011;56029;52.568;13.588;2022-09-27T06:01:07;6.00;;;3.45;;
68976;SDS011;56029;52.568;13.588;2022-09-27T06:03:34;6.67;;;3.33;;
68976;SDS011;56029;52.568;13.588;2022-09-27T06:06:01;5.40;;;3.15;;
68976;SDS011;56029;52.568;13.588;2022-09-27T06:08:34;6.78;;;3.50;;
68976;SDS011;56029;52.568;13.588;2022-09-27T06:11:01;5.65;;;3.08;;
68976;SDS011;56029;52.568;13.588;2022-09-27T06:13:36;5.85;;;3.15;;
68976;SDS011;56029;52.568;13.588;2022-09-27T06:16:05;6.23;;;3.60;;
68976;SDS011;56029;52.568;13.588;2022-09-27T06:18:32;7.00;;;3.20;;
68976;SDS011;56029;52.568;13.588;2022-09-27T06:20:59;6.55;;;3.55;;
68976;SDS011;56029;52.568;13.588;2022-09-27T06:23:25;8.68;;;3.80;;
68976;SDS011;56029;52.568;13.588;2022-09-27T06:25:52;6.72;;;3.72;;
68976;SDS011;56029;52.568;13.588;2022-09-27T06:28:18;7.43;;;3.77;;
68976;SDS011;56029;52.568;13.588;2022-09-27T06:30:45;6.75;;;3.60;;
68976;SDS011;56029;52.568;13.588;2022-09-27T06:33:16;6.22;;;3.60;;
68976;SDS011;56029;52.568;13.588;2022-09-27T06:35:44;6.10;;;3.40;;
68976;SDS011;56029;52.568;13.588;2022-09-27T06:38:11;7.13;;;3.80;;
68976;SDS011;56029;52.568;13.588;2022-09-27T06:40:40;6.77;;;4.20;;
68976;SDS011;56029;52.568;13.588;2022-09-27T06:43:10;7.50;;;3.63;;
68976;SDS011;56029;52.568;13.588;2022-09-27T06:45:37;7.38;;;3.80;;
68976;SDS011;56029;52.568;13.588;2022-09-27T06:48:06;6.45;;;3.85;;
68976;SDS011;56029;52.568;13.588;2022-09-27T06:50:34;7.63;;;3.90;;
68976;SDS011;56029;52.568;13.588;2022-09-27T06:53:01;7.18;;;3.92;;
68976;SDS011;56029;52.568;13.588;2022-09-27T06:55:30;6.95;;;3.90;;
68976;SDS011;56029;52.568;13.588;2022-09-27T06:57:57;7.32;;;3.88;;
68976;SDS011;56029;52.568;13.588;2022-09-27T07:00:42;7.38;;;4.00;;
68976;SDS011;56029;52.568;13.588;2022-09-27T07:03:09;7.33;;;4.00;;
68976;SDS011;56029;52.568;13.588;2022-09-27T07:05:36;7.65;;;4.15;;
68976;SDS011;56029;52.568;13.588;2022-09-27T07:08:02;7.32;;;4.55;;
68976;SDS011;56029;52.568;13.588;2022-09-27T07:10:30;9.27;;;4.50;;
68976;SDS011;56029;52.568;13.588;2022-09-27T07:13:05;8.27;;;4.30;;
68976;SDS011;56029;52.568;13.588;2022-09-27T07:15:36;8.13;;;4.30;;
68976;SDS011;56029;52.568;13.588;2022-09-27T07:18:04;9.63;;;5.00;;
68976;SDS011;56029;52.568;13.588;2022-09-27T07:20:32;8.27;;;4.78;;
68976;SDS011;56029;52.568;13.588;2022-09-27T07:23:01;7.35;;;4.10;;
68976;SDS011;56029;52.568;13.588;2022-09-27T07:25:29;7.13;;;4.07;;
68976;SDS011;56029;52.568;13.588;2022-09-27T07:28:03;8.83;;;5.10;;
68976;SDS011;56029;52.568;13.588;2022-09-27T07:30:30;7.10;;;4.35;;
68976;SDS011;56029;52.568;13.588;2022-09-27T07:32:58;8.90;;;5.00;;
68976;SDS011;56029;52.568;13.588;2022-09-27T07:35:24;8.48;;;5.15;;
68976;SDS011;56029;52.568;13.588;2022-09-27T07:37:51;10.95;;;6.00;;
68976;SDS011;56029;52.568;13.588;2022-09-27T07:40:17;9.43;;;3.90;;
68976;SDS011;56029;52.568;13.588;2022-09-27T07:42:43;7.65;;;4.47;;
68976;SDS011;56029;52.568;13.588;2022-09-27T07:45:09;9.00;;;4.97;;
68976;SDS011;56029;52.568;13.588;2022-09-27T07:47:39;7.55;;;4.07;;
68976;SDS011;56029;52.568;13.588;2022-09-27T07:50:05;7.38;;;4.35;;
68976;SDS011;56029;52.568;13.588;2022-09-27T07:52:39;6.60;;;4.00;;
68976;SDS011;56029;52.568;13.588;2022-09-27T07:55:09;6.97;;;4.15;;
68976;SDS011;56029;52.568;13.588;2022-09-27T07:57:37;6.63;;;3.80;;
68976;SDS011;56029;52.568;13.588;2022-09-27T08:00:03;7.68;;;3.83;;
68976;SDS011;56029;52.568;13.588;2022-09-27T08:02:30;6.90;;;3.80;;
68976;SDS011;56029;52.568;13.588;2022-09-27T08:05:00;6.53;;;3.50;;
68976;SDS011;56029;52.568;13.588;2022-09-27T08:07:26;5.80;;;3.70;;
68976;SDS011;56029;52.568;13.588;2022-09-27T08:09:52;6.88;;;3.70;;
68976;SDS011;56029;52.568;13.588;2022-09-27T08:12:18;6.97;;;3.88;;
68976;SDS011;56029;52.568;13.588;2022-09-27T08:14:46;6.43;;;3.65;;
68976;SDS011;56029;52.568;13.588;2022-09-27T08:17:12;5.72;;;3.53;;
68976;SDS011;56029;52.568;13.588;2022-09-27T08:19:38;6.93;;;3.50;;
68976;SDS011;56029;52.568;13.588;2022-09-27T08:22:05;6.78;;;3.70;;
68976;SDS011;56029;52.568;13.588;2022-09-27T08:24:32;6.85;;;3.83;;
68976;SDS011;56029;52.568;13.588;2022-09-27T08:26:58;6.97;;;3.75;;
68976;SDS011;56029;52.568;13.588;2022-09-27T08:29:24;7.45;;;4.05;;
68976;SDS011;56029;52.568;13.588;2022-09-27T08:31:50;6.03;;;3.60;;
68976;SDS011;56029;52.568;13.588;2022-09-27T08:34:16;6.30;;;3.78;;
68976;SDS011;56029;52.568;13.588;2022-09-27T08:36:42;6.37;;;3.60;;
68976;SDS011;56029;52.568;13.588;2022-09-27T08:39:08;7.63;;;4.78;;
68976;SDS011;56029;52.568;13.588;2022-09-27T08:41:37;7.60;;;4.67;;
68976;SDS011;56029;52.568;13.588;2022-09-27T08:46:57;8.73;;;5.20;;
68976;SDS011;56029;52.568;13.588;2022-09-27T08:49:35;9.20;;;4.80;;
68976;SDS011;56029;52.568;13.588;2022-09-27T08:52:06;7.32;;;4.57;;
68976;SDS011;56029;52.568;13.588;2022-09-27T08:54:36;8.10;;;4.67;;
68976;SDS011;56029;52.568;13.588;2022-09-27T08:57:05;8.45;;;4.88;;
68976;SDS011;56029;52.568;13.588;2022-09-27T08:59:40;8.07;;;5.20;;
68976;SDS011;56029;52.568;13.588;2022-09-27T09:02:17;8.05;;;5.05;;
68976;SDS011;56029;52.568;13.588;2022-09-27T09:04:44;9.90;;;5.03;;
68976;SDS011;56029;52.568;13.588;2022-09-27T09:09:51;9.35;;;5.03;;
68976;SDS011;56029;52.568;13.588;2022-09-27T09:12:22;7.45;;;4.90;;
68976;SDS011;56029;52.568;13.588;2022-09-27T09:26:38;8.55;;;5.30;;
68976;SDS011;56029;52.568;13.588;2022-09-27T09:29:32;8.45;;;5.03;;
68976;SDS011;56029;52.568;13.588;2022-09-27T09:35:13;9.67;;;4.93;;
68976;SDS011;56029;52.568;13.588;2022-09-27T09:37:48;7.78;;;4.60;;
68976;SDS011;56029;52.568;13.588;2022-09-27T09:40:21;8.18;;;5.00;;
68976;SDS011;56029;52.568;13.588;2022-09-27T09:45:45;8.40;;;5.10;;
68976;SDS011;56029;52.568;13.588;2022-09-27T09:50:57;7.93;;;4.68;;
68976;SDS011;56029;52.568;13.588;2022-09-27T09:53:29;7.05;;;4.40;;
68976;SDS011;56029;52.568;13.588;2022-09-27T09:56:07;6.93;;;4.20;;
68976;SDS011;56029;52.568;13.588;2022-09-27T10:03:40;7.50;;;4.75;;
68976;SDS011;56029;52.568;13.588;2022-09-27T10:06:07;7.17;;;4.70;;
68976;SDS011;56029;52.568;13.588;2022-09-27T10:08:35;7.38;;;4.80;;
68976;SDS011;56029;52.568;13.588;2022-09-27T10:11:01;8.27;;;5.13;;
68976;SDS011;56029;52.568;13.588;2022-09-27T10:13:29;8.00;;;4.95;;
68976;SDS011;56029;52.568;13.588;2022-09-27T10:16:04;7.53;;;5.10;;
68976;SDS011;56029;52.568;13.588;2022-09-27T10:18:34;7.10;;;4.50;;
68976;SDS011;56029;52.568;13.588;2022-09-27T10:21:04;8.10;;;4.80;;
68976;SDS011;56029;52.568;13.588;2022-09-27T10:23:35;7.82;;;4.63;;
68976;SDS011;56029;52.568;13.588;2022-09-27T10:26:02;7.25;;;4.68;;
68976;SDS011;56029;52.568;13.588;2022-09-27T10:28:33;7.80;;;4.43;;
68976;SDS011;56029;52.568;13.588;2022-09-27T10:31:06;6.22;;;3.75;;
68976;SDS011;56029;52.568;13.588;2022-09-27T10:33:35;6.20;;;4.00;;
68976;SDS011;56029;52.568;13.588;2022-09-27T10:36:03;7.63;;;4.15;;
68976;SDS011;56029;52.568;13.588;2022-09-27T10:38:30;7.33;;;3.93;;
68976;SDS011;56029;52.568;13.588;2022-09-27T10:43:41;7.82;;;4.70;;
68976;SDS011;56029;52.568;13.588;2022-09-27T10:46:24;6.32;;;4.38;;
68976;SDS011;56029;52.568;13.588;2022-09-27T10:49:08;5.78;;;4.03;;
68976;SDS011;56029;52.568;13.588;2022-09-27T10:52:14;6.50;;;4.10;;
68976;SDS011;56029;52.568;13.588;2022-09-27T10:54:40;6.93;;;4.30;;
68976;SDS011;56029;52.568;13.588;2022-09-27T10:59:39;6.10;;;4.05;;
68976;SDS011;56029;52.568;13.588;2022-09-27T11:02:41;5.90;;;3.85;;
68976;SDS011;56029;52.568;13.588;2022-09-27T11:05:46;6.10;;;4.00;;
68976;SDS011;56029;52.568;13.588;2022-09-27T11:07:53;5.47;;;3.80;;
68976;SDS011;56029;52.568;13.588;2022-09-27T11:10:24;6.75;;;3.72;;
68976;SDS011;56029;52.568;13.588;2022-09-27T11:13:12;6.10;;;3.80;;
68976;SDS011;56029;52.568;13.588;2022-09-27T11:15:59;5.53;;;3.55;;
68976;SDS011;56029;52.568;13.588;2022-09-27T11:21:46;4.45;;;3.17;;
68976;SDS011;56029;52.568;13.588;2022-09-27T11:27:44;5.82;;;3.38;;
68976;SDS011;56029;52.568;13.588;2022-09-27T11:30:26;4.93;;;3.30;;
68976;SDS011;56029;52.568;13.588;2022-09-27T11:35:55;4.32;;;3.00;;
68976;SDS011;56029;52.568;13.588;2022-09-27T11:41:21;5.47;;;3.42;;
68976;SDS011;56029;52.568;13.588;2022-09-27T11:46:42;5.53;;;3.30;;
68976;SDS011;56029;52.568;13.588;2022-09-27T11:55:38;3.92;;;2.85;;
68976;SDS011;56029;52.568;13.588;2022-09-27T11:58:30;4.85;;;3.17;;
68976;SDS011;56029;52.568;13.588;2022-09-27T12:09:49;8.30;;;4.40;;
68976;SDS011;56029;52.568;13.588;2022-09-27T12:12:18;6.68;;;4.28;;
68976;SDS011;56029;52.568;13.588;2022-09-27T12:14:58;7.90;;;2.93;;
68976;SDS011;56029;52.568;13.588;2022-09-27T12:17:32;3.97;;;2.30;;
68976;SDS011;56029;52.568;13.588;2022-09-27T12:20:09;3.13;;;1.80;;
68976;SDS011;56029;52.568;13.588;2022-09-27T12:25:52;2.70;;;1.42;;
68976;SDS011;56029;52.568;13.588;2022-09-27T12:31:04;2.42;;;1.48;;
68976;SDS011;56029;52.568;13.588;2022-09-27T12:33:42;2.47;;;1.30;;
68976;SDS011;56029;52.568;13.588;2022-09-27T12:36:33;3.47;;;1.20;;
68976;SDS011;56029;52.568;13.588;2022-09-27T12:41:54;3.07;;;1.40;;
68976;SDS011;56029;52.568;13.588;2022-09-27T12:44:28;3.40;;;1.60;;
68976;SDS011;56029;52.568;13.588;2022-09-27T12:47:07;4.15;;;1.30;;
68976;SDS011;56029;52.568;13.588;2022-09-27T12:49:56;4.45;;;1.80;;
68976;SDS011;56029;52.568;13.588;2022-09-27T12:52:46;2.90;;;1.50;;
68976;SDS011;56029;52.568;13.588;2022-09-27T12:55:24;3.60;;;1.23;;
68976;SDS011;56029;52.568;13.588;2022-09-27T13:00:55;2.72;;;1.40;;
68976;SDS011;56029;52.568;13.588;2022-09-27T13:03:31;2.75;;;1.50;;
68976;SDS011;56029;52.568;13.588;2022-09-27T13:14:26;3.58;;;1.60;;
68976;SDS011;56029;52.568;13.588;2022-09-27T13:16:56;4.60;;;2.08;;
68976;SDS011;56029;52.568;13.588;2022-09-27T13:22:03;5.28;;;2.53;;
68976;SDS011;56029;52.568;13.588;2022-09-27T13:24:55;6.32;;;2.65;;
68976;SDS011;56029;52.568;13.588;2022-09-27T13:29:47;5.07;;;2.90;;
68976;SDS011;56029;52.568;13.588;2022-09-27T13:32:14;5.97;;;2.90;;
68976;SDS011;56029;52.568;13.588;2022-09-27T13:34:46;4.68;;;2.65;;
68976;SDS011;56029;52.568;13.588;2022-09-27T13:37:26;5.43;;;3.23;;
68976;SDS011;56029;52.568;13.588;2022-09-27T13:43:09;3.53;;;2.20;;
68976;SDS011;56029;52.568;13.588;2022-09-27T13:46:04;3.28;;;1.60;;
68976;SDS011;56029;52.568;13.588;2022-09-27T13:48:51;3.85;;;1.40;;
68976;SDS011;56029;52.568;13.588;2022-09-27T13:56:58;2.78;;;1.20;;
68976;SDS011;56029;52.568;13.588;2022-09-27T14:01:55;3.10;;;1.48;;
68976;SDS011;56029;52.568;13.588;2022-09-27T14:04:36;1.67;;;1.10;;
68976;SDS011;56029;52.568;13.588;2022-09-27T14:07:09;2.78;;;1.40;;
68976;SDS011;56029;52.568;13.588;2022-09-27T14:09:38;2.13;;;1.30;;
68976;SDS011;56029;52.568;13.588;2022-09-27T14:12:11;2.05;;;1.40;;
68976;SDS011;56029;52.568;13.588;2022-09-27T14:14:43;3.33;;;1.60;;
68976;SDS011;56029;52.568;13.588;2022-09-27T14:17:11;2.80;;;1.50;;
68976;SDS011;56029;52.568;13.588;2022-09-27T14:19:41;2.88;;;1.80;;
68976;SDS011;56029;52.568;13.588;2022-09-27T14:22:19;3.55;;;1.70;;
68976;SDS011;56029;52.568;13.588;2022-09-27T14:27:17;2.65;;;1.30;;
68976;SDS011;56029;52.568;13.588;2022-09-27T14:32:21;3.15;;;1.60;;
68976;SDS011;56029;52.568;13.588;2022-09-27T14:38:03;3.63;;;1.50;;
68976;SDS011;56029;52.568;13.588;2022-09-27T14:40:32;3.13;;;1.50;;
68976;SDS011;56029;52.568;13.588;2022-09-27T14:43:14;3.80;;;1.90;;
68976;SDS011;56029;52.568;13.588;2022-09-27T14:45:42;3.80;;;2.10;;
68976;SDS011;56029;52.568;13.588;2022-09-27T14:48:27;4.20;;;2.20;;
68976;SDS011;56029;52.568;13.588;2022-09-27T14:50:55;4.22;;;2.42;;
68976;SDS011;56029;52.568;13.588;2022-09-27T14:53:27;5.20;;;2.10;;
68976;SDS011;56029;52.568;13.588;2022-09-27T14:55:55;6.50;;;2.20;;
68976;SDS011;56029;52.568;13.588;2022-09-27T14:58:21;4.20;;;1.90;;
68976;SDS011;56029;52.568;13.588;2022-09-27T15:00:48;4.03;;;2.03;;
68976;SDS011;56029;52.568;13.588;2022-09-27T15:03:22;4.82;;;2.45;;
68976;SDS011;56029;52.568;13.588;2022-09-27T15:05:54;4.38;;;2.17;;
68976;SDS011;56029;52.568;13.588;2022-09-27T15:08:23;4.10;;;2.00;;
68976;SDS011;56029;52.568;13.588;2022-09-27T15:10:51;5.82;;;2.00;;
68976;SDS011;56029;52.568;13.588;2022-09-27T15:13:19;5.18;;;2.10;;
68976;SDS011;56029;52.568;13.588;2022-09-27T15:15:45;5.55;;;2.83;;
68976;SDS011;56029;52.568;13.588;2022-09-27T15:21:07;4.93;;;2.20;;
68976;SDS011;56029;52.568;13.588;2022-09-27T15:23:36;4.72;;;2.50;;
68976;SDS011;56029;52.568;13.588;2022-09-27T15:26:08;5.07;;;2.63;;
68976;SDS011;56029;52.568;13.588;2022-09-27T15:28:45;4.35;;;2.10;;
68976;SDS011;56029;52.568;13.588;2022-09-27T15:31:13;4.63;;;2.00;;
68976;SDS011;56029;52.568;13.588;2022-09-27T15:33:42;4.90;;;2.47;;
68976;SDS011;56029;52.568;13.588;2022-09-27T15:36:18;5.03;;;2.40;;
68976;SDS011;56029;52.568;13.588;2022-09-27T15:39:20;4.93;;;2.30;;
68976;SDS011;56029;52.568;13.588;2022-09-27T15:52:40;4.53;;;2.40;;
68976;SDS011;56029;52.568;13.588;2022-09-27T15:55:15;5.47;;;2.50;;
68976;SDS011;56029;52.568;13.588;2022-09-27T15:57:47;5.22;;;2.55;;
68976;SDS011;56029;52.568;13.588;2022-09-27T16:00:15;5.47;;;2.80;;
68976;SDS011;56029;52.568;13.588;2022-09-27T16:02:44;6.68;;;3.10;;
68976;SDS011;56029;52.568;13.588;2022-09-27T16:05:10;8.15;;;5.38;;
68976;SDS011;56029;52.568;13.588;2022-09-27T16:07:39;4.97;;;2.38;;
68976;SDS011;56029;52.568;13.588;2022-09-27T16:12:42;7.05;;;3.85;;
68976;SDS011;56029;52.568;13.588;2022-09-27T16:15:11;7.35;;;3.85;;
68976;SDS011;56029;52.568;13.588;2022-09-27T16:17:38;8.50;;;3.60;;
68976;SDS011;56029;52.568;13.588;2022-09-27T16:20:17;5.77;;;3.03;;
68976;SDS011;56029;52.568;13.588;2022-09-27T16:22:47;7.85;;;4.00;;
68976;SDS011;56029;52.568;13.588;2022-09-27T16:25:13;7.80;;;4.28;;
68976;SDS011;56029;52.568;13.588;2022-09-27T16:27:39;15.23;;;7.83;;
68976;SDS011;56029;52.568;13.588;2022-09-27T16:30:05;6.28;;;2.80;;
68976;SDS011;56029;52.568;13.588;2022-09-27T16:32:32;10.10;;;4.93;;
68976;SDS011;56029;52.568;13.588;2022-09-27T16:34:58;8.85;;;3.40;;
68976;SDS011;56029;52.568;13.588;2022-09-27T16:37:24;5.40;;;2.73;;
68976;SDS011;56029;52.568;13.588;2022-09-27T16:39:49;7.32;;;4.22;;
68976;SDS011;56029;52.568;13.588;2022-09-27T16:42:15;10.30;;;6.77;;
68976;SDS011;56029;52.568;13.588;2022-09-27T16:44:41;7.60;;;4.70;;
68976;SDS011;56029;52.568;13.588;2022-09-27T16:47:06;7.17;;;3.97;;
68976;SDS011;56029;52.568;13.588;2022-09-27T16:49:33;3.10;;;1.70;;
68976;SDS011;56029;52.568;13.588;2022-09-27T16:52:17;4.50;;;2.50;;
68976;SDS011;56029;52.568;13.588;2022-09-27T16:54:43;4.20;;;2.60;;
68976;SDS011;56029;52.568;13.588;2022-09-27T16:57:08;4.10;;;2.00;;
68976;SDS011;56029;52.568;13.588;2022-09-27T16:59:34;4.68;;;2.30;;
68976;SDS011;56029;52.568;13.588;2022-09-27T17:02:00;3.93;;;2.10;;
68976;SDS011;56029;52.568;13.588;2022-09-27T17:04:27;3.95;;;2.10;;
68976;SDS011;56029;52.568;13.588;2022-09-27T17:06:54;4.97;;;2.13;;
68976;SDS011;56029;52.568;13.588;2022-09-27T17:09:20;3.60;;;2.00;;
68976;SDS011;56029;52.568;13.588;2022-09-27T17:11:45;3.30;;;1.93;;
68976;SDS011;56029;52.568;13.588;2022-09-27T17:14:12;7.05;;;2.55;;
68976;SDS011;56029;52.568;13.588;2022-09-27T17:16:41;5.63;;;2.50;;
68976;SDS011;56029;52.568;13.588;2022-09-27T17:19:08;5.23;;;2.50;;